Time;durP1;ratioP1;P1;durP2;ratioP2;P2;SDS_P1;SDS_P2;PMS_P1;PMS_P2;Temp;Humidity;BMP_temperature;BMP_pressure;BME280_temperature;BME280_humidity;BME280_pressure;Samples;Min_cycle;Max_cycle;Signal;HPM_P1;HPM_P2
2022/12/31 00:02:02;;;;;;;1.67;0.70;;;;;;;11.43;100.00;96184.34;5046718;28;20212;-70
2022/12/31 00:04:28;;;;;;;0.87;0.60;;;;;;;11.59;100.00;96165.69;5045789;28;20216;-70
2022/12/31 00:06:55;;;;;;;1.30;0.90;;;;;;;11.57;100.00;96171.16;5045140;28;20220;-70
2022/12/31 00:09:21;;;;;;;0.43;0.40;;;;;;;11.64;100.00;96171.22;5045676;28;20225;-70
2022/12/31 00:11:48;;;;;;;1.03;0.93;;;;;;;11.72;100.00;96168.47;5048827;28;20216;-70
2022/12/31 00:14:16;;;;;;;1.10;0.60;;;;;;;11.74;100.00;96177.03;5046217;28;20220;-70
2022/12/31 00:16:42;;;;;;;1.20;0.60;;;;;;;11.75;100.00;96183.97;5045376;28;20217;-70
2022/12/31 00:19:10;;;;;;;0.90;0.60;;;;;;;11.77;100.00;96176.66;5048852;28;20236;-70
2022/12/31 00:21:37;;;;;;;0.80;0.67;;;;;;;11.74;100.00;96187.59;5045834;28;20226;-70
2022/12/31 00:24:06;;;;;;;0.63;0.50;;;;;;;11.80;100.00;96184.19;5046952;28;20201;-70
2022/12/31 00:26:34;;;;;;;0.87;0.73;;;;;;;11.84;100.00;96188.94;5042688;28;20201;-70
2022/12/31 00:29:02;;;;;;;1.10;0.60;;;;;;;11.91;100.00;96186.38;5045428;28;20666;-70
2022/12/31 00:31:32;;;;;;;0.87;0.60;;;;;;;11.95;100.00;96196.41;5044980;28;20209;-70
2022/12/31 00:33:59;;;;;;;0.50;0.50;;;;;;;11.85;100.00;96192.38;5045407;28;20204;-70
2022/12/31 00:36:27;;;;;;;1.23;0.77;;;;;;;11.92;100.00;96198.56;5043186;28;20236;-73
2022/12/31 00:38:55;;;;;;;0.70;0.53;;;;;;;12.00;100.00;96206.38;5044587;28;20665;-70
2022/12/31 00:41:23;;;;;;;1.47;0.70;;;;;;;12.09;100.00;96207.91;5047897;28;20216;-70
2022/12/31 00:43:50;;;;;;;3.37;0.90;;;;;;;12.04;100.00;96212.91;5049956;28;20216;-70
2022/12/31 00:46:17;;;;;;;0.53;0.53;;;;;;;12.07;100.00;96209.94;5048942;28;20201;-70
2022/12/31 00:48:46;;;;;;;0.70;0.70;;;;;;;12.11;100.00;96222.56;5049462;28;20212;-72
2022/12/31 00:51:16;;;;;;;0.57;0.57;;;;;;;12.19;100.00;96218.00;5044916;28;20339;-72
2022/12/31 00:53:43;;;;;;;0.90;0.67;;;;;;;12.11;100.00;96237.59;5044954;28;20208;-70
2022/12/31 00:56:11;;;;;;;0.97;0.60;;;;;;;12.16;100.00;96241.31;5044111;28;20331;-70
2022/12/31 00:58:38;;;;;;;1.20;0.50;;;;;;;12.11;100.00;96237.59;5043680;28;20216;-70
2022/12/31 01:01:08;;;;;;;0.70;0.67;;;;;;;12.20;100.00;96238.09;5048142;28;21156;-70
2022/12/31 01:03:35;;;;;;;0.87;0.67;;;;;;;12.09;100.00;96244.88;5048132;28;20197;-70
2022/12/31 01:06:03;;;;;;;0.63;0.63;;;;;;;12.16;100.00;96247.41;5047549;28;20205;-72
2022/12/31 01:08:29;;;;;;;1.20;0.90;;;;;;;12.09;100.00;96256.25;5047469;28;20209;-72
2022/12/31 01:13:41;;;;;;;0.60;0.60;;;;;;;12.13;100.00;96246.16;5049690;28;20202;-72
2022/12/31 01:16:09;;;;;;;0.60;0.60;;;;;;;12.16;100.00;96252.69;5051006;28;20588;-70
2022/12/31 01:18:35;;;;;;;0.83;0.60;;;;;;;12.08;100.00;96253.81;5050757;28;20208;-70
2022/12/31 01:21:05;;;;;;;1.40;0.80;;;;;;;12.21;100.00;96265.34;5050451;28;20236;-72
2022/12/31 01:23:32;;;;;;;0.70;0.60;;;;;;;12.19;100.00;96262.91;5050391;28;21119;-73
2022/12/31 01:26:00;;;;;;;0.70;0.50;;;;;;;12.21;100.00;96258.22;5051312;28;20208;-72
2022/12/31 01:28:27;;;;;;;3.30;0.77;;;;;;;12.21;100.00;96265.34;5042431;28;20259;-72
2022/12/31 01:30:54;;;;;;;2.50;0.80;;;;;;;12.21;100.00;96266.16;5040461;28;20228;-72
2022/12/31 01:33:20;;;;;;;0.50;0.50;;;;;;;12.21;100.00;96260.06;5044759;28;20970;-72
2022/12/31 01:35:46;;;;;;;0.77;0.70;;;;;;;12.20;100.00;96264.50;5043858;28;20217;-72
2022/12/31 01:38:14;;;;;;;0.83;0.60;;;;;;;12.31;100.00;96271.16;5046535;28;20208;-72
2022/12/31 01:40:42;;;;;;;0.90;0.70;;;;;;;12.32;100.00;96257.75;5046508;28;20583;-72
2022/12/31 01:43:14;;;;;;;0.50;0.50;;;;;;;12.38;100.00;96262.28;5047957;28;20209;-72
2022/12/31 01:45:42;;;;;;;0.80;0.70;;;;;;;12.28;100.00;96269.72;5048456;28;20212;-71
2022/12/31 01:48:12;;;;;;;1.13;0.90;;;;;;;12.39;100.00;96271.84;5042592;28;20213;-71
2022/12/31 01:50:40;;;;;;;0.90;0.90;;;;;;;12.39;100.00;96276.31;5048165;28;20237;-71
2022/12/31 01:53:08;;;;;;;0.97;0.80;;;;;;;12.33;100.00;96292.91;5048593;28;20220;-71
2022/12/31 01:55:42;;;;;;;4.00;0.93;;;;;;;12.29;100.00;96286.38;5047542;28;20235;-71
2022/12/31 01:58:11;;;;;;;1.10;0.83;;;;;;;12.35;100.00;96285.63;5047450;28;20217;-71
2022/12/31 02:00:38;;;;;;;1.40;0.97;;;;;;;12.14;100.00;96280.28;5049101;28;20237;-72
2022/12/31 02:03:06;;;;;;;0.97;0.70;;;;;;;12.20;100.00;96282.19;5048142;28;20213;-71
2022/12/31 02:05:37;;;;;;;3.43;0.93;;;;;;;12.24;100.00;96286.94;5048227;28;20223;-71
2022/12/31 02:08:05;;;;;;;0.70;0.50;;;;;;;12.14;100.00;96290.06;5045574;28;20204;-72
2022/12/31 02:10:32;;;;;;;1.00;0.63;;;;;;;12.07;100.00;96287.34;5041901;28;20240;-71
2022/12/31 02:13:01;;;;;;;1.00;0.70;;;;;;;12.11;100.00;96291.25;5046265;28;20205;-71
2022/12/31 02:15:38;;;;;;;1.77;0.70;;;;;;;12.20;100.00;96298.84;5047220;28;20228;-71
2022/12/31 02:18:12;;;;;;;0.80;0.70;;;;;;;12.15;100.00;96302.25;5046986;28;20222;-71
2022/12/31 02:21:19;;;;;;;1.00;0.70;;;;;;;12.14;100.00;96300.63;5048357;28;20221;-71
2022/12/31 02:24:10;;;;;;;1.37;1.20;;;;;;;12.02;100.00;96307.38;5044805;28;20574;-71
2022/12/31 02:26:49;;;;;;;2.10;0.77;;;;;;;12.02;100.00;96304.75;5047051;28;20201;-71
2022/12/31 02:29:57;;;;;;;0.67;0.67;;;;;;;12.03;100.00;96311.63;5046501;28;20225;-71
2022/12/31 02:32:31;;;;;;;2.30;1.00;;;;;;;12.01;100.00;96311.81;5025088;28;20212;-71
2022/12/31 02:35:04;;;;;;;0.97;0.80;;;;;;;11.87;100.00;96309.22;5047051;28;20665;-71
2022/12/31 02:37:33;;;;;;;1.17;0.80;;;;;;;11.74;100.00;96311.69;5046353;28;20225;-71
2022/12/31 02:40:01;;;;;;;0.73;0.70;;;;;;;11.66;100.00;96311.78;5046193;28;20217;-71
2022/12/31 02:42:28;;;;;;;1.47;0.87;;;;;;;11.62;100.00;96313.94;5046880;28;20235;-71
2022/12/31 02:44:54;;;;;;;2.13;1.00;;;;;;;11.52;100.00;96314.38;5046024;28;20209;-71
2022/12/31 02:47:35;;;;;;;2.47;1.10;;;;;;;11.64;100.00;96304.00;5047152;28;20201;-71
2022/12/31 02:50:17;;;;;;;1.23;0.80;;;;;;;11.54;100.00;96302.66;5046307;28;20224;-71
2022/12/31 02:52:53;;;;;;;0.93;0.80;;;;;;;11.51;100.00;96303.00;5046569;28;20212;-72
2022/12/31 02:55:29;;;;;;;3.63;1.00;;;;;;;11.39;100.00;96309.72;5047506;28;20209;-71
2022/12/31 02:58:05;;;;;;;2.20;0.97;;;;;;;11.37;100.00;96319.63;5046198;28;20685;-71
2022/12/31 03:03:22;;;;;;;1.37;0.90;;;;;;;11.34;100.00;96327.91;5046602;28;20216;-71
2022/12/31 03:05:49;;;;;;;1.57;0.60;;;;;;;11.27;100.00;96336.69;5044977;28;21281;-71
2022/12/31 03:08:21;;;;;;;4.80;0.90;;;;;;;11.34;100.00;96334.97;5045138;28;20209;-71
2022/12/31 03:10:47;;;;;;;1.70;0.90;;;;;;;11.17;100.00;96341.41;5044116;28;20229;-71
2022/12/31 03:13:13;;;;;;;0.90;0.80;;;;;;;11.27;100.00;96347.25;5044424;28;20205;-71
2022/12/31 03:15:39;;;;;;;2.13;0.90;;;;;;;11.41;100.00;96352.56;5044296;28;20213;-71
2022/12/31 03:18:08;;;;;;;1.00;0.80;;;;;;;11.44;100.00;96352.19;5045641;28;20689;-71
2022/12/31 03:23:25;;;;;;;0.97;0.80;;;;;;;11.42;100.00;96353.38;5045883;28;20208;-71
2022/12/31 03:25:52;;;;;;;0.90;0.67;;;;;;;11.37;100.00;96356.56;5048101;28;20324;-71
2022/12/31 03:28:20;;;;;;;1.03;0.83;;;;;;;11.27;100.00;96353.34;5049889;28;20205;-71
2022/12/31 03:30:50;;;;;;;2.70;1.10;;;;;;;11.39;100.00;96354.56;5051164;28;20225;-71
2022/12/31 03:33:18;;;;;;;1.37;0.97;;;;;;;11.25;100.00;96363.25;5050515;28;20212;-71
2022/12/31 03:35:47;;;;;;;4.10;1.30;;;;;;;11.37;100.00;96355.75;5049784;28;20218;-71
2022/12/31 03:38:14;;;;;;;2.53;1.07;;;;;;;11.23;100.00;96370.53;5050354;28;20232;-72
2022/12/31 03:40:43;;;;;;;1.03;0.73;;;;;;;11.34;100.00;96364.84;5049549;28;20221;-71
2022/12/31 03:43:10;;;;;;;2.00;0.90;;;;;;;11.30;100.00;96382.03;5050994;28;20201;-71
2022/12/31 03:45:38;;;;;;;2.20;0.90;;;;;;;11.27;100.00;96368.34;5049552;28;20565;-71
2022/12/31 03:48:06;;;;;;;1.40;0.80;;;;;;;11.32;100.00;96366.81;5049590;28;20216;-71
2022/12/31 03:50:33;;;;;;;2.40;1.00;;;;;;;11.31;100.00;96365.16;5048773;28;20716;-71
2022/12/31 03:53:01;;;;;;;1.43;1.00;;;;;;;11.38;100.00;96355.56;5049915;28;20213;-71
2022/12/31 03:55:28;;;;;;;2.03;0.83;;;;;;;11.31;100.00;96354.63;5049299;28;20205;-71
2022/12/31 03:57:54;;;;;;;1.00;0.70;;;;;;;11.42;100.00;96356.84;5050087;28;20229;-71
2022/12/31 04:00:22;;;;;;;3.13;1.00;;;;;;;11.58;100.00;96351.41;5049634;28;20229;-72
2022/12/31 04:02:49;;;;;;;0.80;0.77;;;;;;;11.49;100.00;96347.19;5047427;28;20502;-71
2022/12/31 04:05:17;;;;;;;1.20;0.90;;;;;;;11.59;100.00;96353.88;5047734;28;20201;-71
2022/12/31 04:07:44;;;;;;;1.30;0.90;;;;;;;11.64;100.00;96350.72;5048384;28;20212;-71
2022/12/31 04:10:14;;;;;;;1.40;0.90;;;;;;;11.66;100.00;96348.72;5050603;28;20233;-71
2022/12/31 04:12:41;;;;;;;1.03;0.83;;;;;;;11.49;100.00;96352.47;5050939;28;20576;-71
2022/12/31 04:15:09;;;;;;;0.70;0.70;;;;;;;11.60;100.00;96358.16;5051197;28;20311;-71
2022/12/31 04:17:35;;;;;;;1.13;0.70;;;;;;;11.57;100.00;96369.09;5048986;28;20228;-71
2022/12/31 04:20:02;;;;;;;1.10;0.70;;;;;;;11.59;100.00;96363.63;5050950;28;20937;-71
2022/12/31 04:22:29;;;;;;;0.60;0.60;;;;;;;11.61;100.00;96373.00;5049940;28;20208;-71
2022/12/31 04:24:55;;;;;;;1.57;0.80;;;;;;;11.80;100.00;96371.66;5049051;28;20658;-72
2022/12/31 04:27:23;;;;;;;0.90;0.70;;;;;;;11.90;100.00;96366.94;5051036;28;20228;-71
2022/12/31 04:29:49;;;;;;;4.57;0.77;;;;;;;11.89;100.00;96375.84;5049807;28;20217;-71
2022/12/31 04:32:16;;;;;;;2.80;0.80;;;;;;;11.91;100.00;96377.28;5049075;28;20197;-71
2022/12/31 04:34:42;;;;;;;0.53;0.50;;;;;;;11.90;100.00;96382.78;5049934;28;20204;-72
2022/12/31 04:37:09;;;;;;;5.77;0.97;;;;;;;11.81;100.00;96373.28;5048041;28;20225;-72
2022/12/31 04:39:35;;;;;;;1.10;0.70;;;;;;;12.00;100.00;96375.41;5049806;28;20232;-72
2022/12/31 04:42:02;;;;;;;1.80;1.10;;;;;;;12.09;100.00;96377.75;5049971;28;20197;-72
2022/12/31 04:44:30;;;;;;;1.53;0.90;;;;;;;12.29;100.00;96384.13;5049430;28;20205;-72
2022/12/31 04:46:59;;;;;;;1.60;1.17;;;;;;;12.23;100.00;96380.41;5051372;28;20194;-72
2022/12/31 04:49:25;;;;;;;1.13;0.80;;;;;;;12.34;100.00;96397.63;5050786;28;20225;-72
2022/12/31 04:51:52;;;;;;;1.37;0.90;;;;;;;12.48;100.00;96400.22;5050636;28;20208;-72
2022/12/31 04:54:18;;;;;;;9.03;4.17;;;;;;;12.51;100.00;96397.25;5049439;28;20212;-72
2022/12/31 04:56:45;;;;;;;0.97;0.87;;;;;;;12.56;100.00;96392.19;5050841;28;20235;-72
2022/12/31 04:59:11;;;;;;;7.83;5.07;;;;;;;12.61;100.00;96384.53;5050640;28;20236;-72
2022/12/31 05:01:39;;;;;;;2.90;1.87;;;;;;;12.72;100.00;96383.25;5050218;28;20244;-72
2022/12/31 05:04:06;;;;;;;3.37;2.17;;;;;;;12.56;100.00;96392.19;5050785;28;20668;-71
2022/12/31 05:06:32;;;;;;;1.70;0.70;;;;;;;12.52;100.00;96388.28;5050552;28;20221;-70
2022/12/31 05:08:59;;;;;;;5.60;0.70;;;;;;;12.59;100.00;96380.44;5050620;28;20220;-71
2022/12/31 05:11:25;;;;;;;0.50;0.50;;;;;;;12.55;100.00;96390.56;5050631;28;20212;-70
2022/12/31 05:13:52;;;;;;;4.97;1.50;;;;;;;12.58;100.00;96387.56;5050942;28;20565;-70
2022/12/31 05:16:18;;;;;;;1.23;0.70;;;;;;;12.58;100.00;96400.78;5049611;28;20585;-70
2022/12/31 05:18:46;;;;;;;1.30;1.10;;;;;;;12.76;100.00;96404.63;5050398;28;20228;-70
2022/12/31 05:21:18;;;;;;;2.03;0.50;;;;;;;12.86;100.00;96404.38;5048948;28;20209;-70
2022/12/31 05:23:44;;;;;;;0.77;0.60;;;;;;;12.87;100.00;96406.84;5050123;28;20222;-70
2022/12/31 05:26:11;;;;;;;0.60;0.60;;;;;;;12.91;100.00;96412.59;5051361;28;20220;-70
2022/12/31 05:28:37;;;;;;;3.90;1.40;;;;;;;12.92;100.00;96419.53;5050937;28;20204;-70
2022/12/31 05:31:04;;;;;;;0.80;0.80;;;;;;;12.99;100.00;96423.03;5050561;28;20232;-70
2022/12/31 05:33:30;;;;;;;2.47;0.73;;;;;;;12.92;100.00;96425.63;5050291;28;20377;-70
2022/12/31 05:35:58;;;;;;;1.70;0.90;;;;;;;12.95;100.00;96424.44;5050358;28;20205;-70
2022/12/31 05:38:25;;;;;;;0.90;0.80;;;;;;;12.88;100.00;96415.59;5049933;28;20225;-70
2022/12/31 05:40:59;;;;;;;0.73;0.57;;;;;;;13.01;100.00;96408.63;5050567;28;20229;-70
2022/12/31 05:43:25;;;;;;;1.07;0.70;;;;;;;12.77;100.00;96401.00;5050483;28;20209;-70
2022/12/31 05:45:52;;;;;;;3.57;2.00;;;;;;;12.76;100.00;96406.47;5049654;28;20204;-71
2022/12/31 05:48:18;;;;;;;2.97;1.00;;;;;;;12.64;100.00;96415.06;5045702;28;20304;-70
2022/12/31 05:50:45;;;;;;;5.20;2.67;;;;;;;12.57;100.00;96408.88;5050673;28;20224;-73
2022/12/31 05:53:13;;;;;;;6.67;4.60;;;;;;;12.57;100.00;96399.13;5048956;28;20674;-70
2022/12/31 05:55:39;;;;;;;7.30;4.17;;;;;;;12.35;100.00;96415.94;5049419;28;20205;-70
2022/12/31 05:58:05;;;;;;;4.17;1.80;;;;;;;12.36;100.00;96411.47;5049420;28;20221;-70
2022/12/31 06:00:32;;;;;;;3.13;1.77;;;;;;;12.16;100.00;96422.78;5049428;28;20212;-70
2022/12/31 06:02:58;;;;;;;17.93;6.90;;;;;;;12.16;100.00;96405.91;5049192;28;20201;-71
2022/12/31 06:05:25;;;;;;;13.53;2.83;;;;;;;12.22;100.00;96409.66;5049183;28;20200;-70
2022/12/31 06:07:51;;;;;;;21.43;5.40;;;;;;;12.15;100.00;96423.78;5048740;28;20212;-70
2022/12/31 06:10:19;;;;;;;5.47;3.80;;;;;;;12.25;100.00;96417.22;5048083;28;20232;-70
2022/12/31 06:12:46;;;;;;;24.97;5.20;;;;;;;12.35;100.00;96415.13;5048301;28;21012;-70
2022/12/31 06:15:12;;;;;;;23.47;4.30;;;;;;;12.28;100.00;96424.75;5048215;28;20216;-70
2022/12/31 06:17:38;;;;;;;19.67;5.43;;;;;;;12.30;100.00;96425.41;5049057;28;20225;-70
2022/12/31 06:20:06;;;;;;;11.03;4.17;;;;;;;12.30;100.00;96435.97;5049064;28;20228;-70
2022/12/31 06:22:32;;;;;;;45.87;9.97;;;;;;;12.29;100.00;96426.41;5047578;28;20216;-70
2022/12/31 06:24:59;;;;;;;27.87;5.80;;;;;;;12.35;100.00;96425.69;5047070;28;20213;-70
2022/12/31 06:27:27;;;;;;;11.00;3.00;;;;;;;12.45;100.00;96429.69;5047451;28;20201;-70
2022/12/31 06:29:53;;;;;;;6.43;4.00;;;;;;;12.34;100.00;96434.63;5047162;28;20229;-70
2022/12/31 06:32:20;;;;;;;31.93;7.03;;;;;;;12.27;100.00;96437.16;5046409;28;20209;-70
2022/12/31 06:34:46;;;;;;;20.87;4.33;;;;;;;12.27;100.00;96433.69;5046965;28;20209;-70
2022/12/31 06:37:12;;;;;;;27.93;6.10;;;;;;;12.25;100.00;96439.16;5047737;28;20221;-71
2022/12/31 06:39:39;;;;;;;17.67;8.17;;;;;;;12.20;100.00;96435.44;5048135;28;20236;-70
2022/12/31 06:42:05;;;;;;;36.50;10.73;;;;;;;12.20;100.00;96427.50;5049063;28;20209;-70
2022/12/31 06:44:33;;;;;;;33.77;6.07;;;;;;;12.27;100.00;96437.16;5047596;28;20239;-71
2022/12/31 06:47:00;;;;;;;13.80;4.97;;;;;;;12.15;100.00;96447.56;5049244;28;20243;-70
2022/12/31 06:49:26;;;;;;;3.63;2.40;;;;;;;12.14;100.00;96443.25;5049688;28;20709;-70
2022/12/31 06:51:53;;;;;;;3.27;1.80;;;;;;;12.15;100.00;96450.19;5049080;28;20569;-70
2022/12/31 06:54:20;;;;;;;2.43;1.10;;;;;;;12.16;100.00;96448.16;5047392;28;20206;-70
2022/12/31 06:56:47;;;;;;;2.70;1.20;;;;;;;12.16;100.00;96436.81;5049014;28;20716;-70
2022/12/31 06:59:24;;;;;;;18.80;5.37;;;;;;;12.36;100.00;96438.72;5049962;28;20236;-70
2022/12/31 07:02:04;;;;;;;3.37;1.70;;;;;;;12.25;100.00;96452.38;5043108;28;20196;-70
2022/12/31 07:04:57;;;;;;;6.73;1.70;;;;;;;12.30;100.00;96449.19;5039066;28;20585;-70
2022/12/31 07:07:32;;;;;;;8.63;2.33;;;;;;;12.26;100.00;96448.72;5040112;28;20209;-71
2022/12/31 07:10:07;;;;;;;1.87;1.00;;;;;;;12.24;100.00;96450.75;5039815;28;20220;-70
2022/12/31 07:12:49;;;;;;;2.27;1.10;;;;;;;12.22;100.00;96446.66;5039994;28;20227;-70
2022/12/31 07:15:25;;;;;;;5.07;1.50;;;;;;;12.29;100.00;96455.47;5038645;28;20236;-70
2022/12/31 07:18:01;;;;;;;3.77;1.30;;;;;;;12.30;100.00;96444.72;5036396;28;20228;-70
2022/12/31 07:20:29;;;;;;;3.60;0.97;;;;;;;12.15;100.00;96450.19;5038087;28;20231;-70
2022/12/31 07:22:56;;;;;;;1.30;0.80;;;;;;;12.20;100.00;96464.50;5039308;28;20232;-70
2022/12/31 07:25:23;;;;;;;3.20;0.90;;;;;;;12.36;100.00;96472.25;5038252;28;20209;-70
2022/12/31 07:28:05;;;;;;;1.00;0.80;;;;;;;12.45;100.00;96479.91;5038575;28;20209;-70
2022/12/31 07:30:39;;;;;;;5.13;0.87;;;;;;;12.46;100.00;96493.94;5038644;28;20221;-71
2022/12/31 07:33:29;;;;;;;1.33;0.70;;;;;;;12.51;100.00;96500.34;5038838;28;20716;-70
2022/12/31 07:36:09;;;;;;;1.10;0.80;;;;;;;12.42;100.00;96496.13;5038243;28;20198;-71
2022/12/31 07:38:42;;;;;;;1.33;0.90;;;;;;;12.28;100.00;96489.00;5039506;28;20228;-70
2022/12/31 07:41:15;;;;;;;3.40;1.27;;;;;;;12.19;100.00;96498.03;5039500;28;20244;-70
2022/12/31 07:43:53;;;;;;;5.17;1.37;;;;;;;12.18;100.00;96499.03;5037478;28;20221;-71
2022/12/31 07:46:29;;;;;;;2.73;1.20;;;;;;;12.12;100.00;96500.72;5038349;28;20215;-71
2022/12/31 07:48:58;;;;;;;3.23;1.70;;;;;;;12.14;100.00;96496.09;5038136;28;20230;-69
2022/12/31 07:51:26;;;;;;;4.17;1.70;;;;;;;11.99;100.00;96508.44;5037518;28;21282;-70
2022/12/31 07:53:52;;;;;;;3.97;2.07;;;;;;;12.00;100.00;96499.53;5037717;28;20758;-71
2022/12/31 07:56:19;;;;;;;3.27;1.83;;;;;;;12.04;100.00;96506.09;5048923;28;20208;-70
2022/12/31 07:58:58;;;;;;;3.07;1.60;;;;;;;12.18;100.00;96499.03;5049579;28;20248;-70
2022/12/31 08:01:34;;;;;;;2.40;1.40;;;;;;;12.26;100.00;96504.22;5050258;28;20716;-70
2022/12/31 08:04:07;;;;;;;2.60;1.30;;;;;;;12.31;100.00;96493.94;5050497;28;20208;-70
2022/12/31 08:06:44;;;;;;;1.57;1.17;;;;;;;12.31;100.00;96499.22;5045668;28;20197;-70
2022/12/31 08:09:25;;;;;;;1.43;1.00;;;;;;;12.51;100.00;96504.78;5039219;28;20240;-71
2022/12/31 08:11:56;;;;;;;1.00;0.90;;;;;;;12.70;100.00;96509.53;5036837;28;20593;-70
2022/12/31 08:14:23;;;;;;;1.33;0.80;;;;;;;12.69;100.00;96508.72;5037355;28;20251;-71
2022/12/31 08:16:50;;;;;;;1.60;1.00;;;;;;;12.76;100.00;96514.88;5037972;28;20203;-70
2022/12/31 08:19:24;;;;;;;3.20;1.33;;;;;;;12.79;100.00;96511.88;5038200;28;20233;-71
2022/12/31 08:22:08;;;;;;;4.87;1.10;;;;;;;12.83;100.00;96505.25;5036186;28;20546;-70
2022/12/31 08:24:47;;;;;;;1.83;0.90;;;;;;;12.91;100.00;96513.09;5037437;28;21241;-71
2022/12/31 08:27:23;;;;;;;1.60;0.97;;;;;;;12.91;100.00;96515.75;5038760;28;20205;-70
2022/12/31 08:30:02;;;;;;;1.67;1.03;;;;;;;12.80;100.00;96511.72;5037679;28;20225;-71
2022/12/31 08:32:35;;;;;;;1.77;1.20;;;;;;;12.95;100.00;96515.16;5042609;28;20201;-70
2022/12/31 08:35:13;;;;;;;3.93;1.47;;;;;;;13.04;100.00;96507.97;5047022;28;20209;-70
2022/12/31 08:37:43;;;;;;;2.53;1.50;;;;;;;12.97;100.00;96520.28;5046500;28;20236;-70
2022/12/31 08:40:22;;;;;;;1.83;0.83;;;;;;;13.16;100.00;96522.34;5048132;28;20232;-70
2022/12/31 08:43:06;;;;;;;1.80;1.10;;;;;;;13.30;100.00;96529.44;5046423;28;20224;-69
2022/12/31 08:45:37;;;;;;;1.17;0.80;;;;;;;13.34;100.00;96522.75;5046718;28;20205;-69
2022/12/31 08:48:09;;;;;;;1.67;1.00;;;;;;;13.33;100.00;96510.53;5047545;28;20628;-69
2022/12/31 08:50:38;;;;;;;1.03;0.90;;;;;;;13.23;100.00;96510.84;5048473;28;20221;-70
2022/12/31 08:53:05;;;;;;;1.87;1.00;;;;;;;13.28;100.00;96523.53;5048526;28;20575;-70
2022/12/31 08:55:32;;;;;;;1.10;1.00;;;;;;;13.27;100.00;96525.31;5047440;28;20204;-69
2022/12/31 08:58:13;;;;;;;3.10;1.80;;;;;;;13.64;100.00;96530.41;5045842;28;20221;-70
2022/12/31 09:00:41;;;;;;;1.40;0.98;;;;;;;13.64;100.00;96527.78;5040820;28;20228;-70
2022/12/31 09:03:21;;;;;;;1.73;1.00;;;;;;;13.92;99.36;96534.75;5047733;28;20201;-70
2022/12/31 09:05:57;;;;;;;1.20;0.80;;;;;;;13.94;99.39;96546.00;5043121;28;20213;-69
2022/12/31 09:08:31;;;;;;;0.85;0.85;;;;;;;13.96;99.17;96548.47;5042620;28;20300;-69
2022/12/31 09:11:05;;;;;;;1.52;1.00;;;;;;;13.98;99.17;96554.41;5044068;28;20225;-70
2022/12/31 09:13:44;;;;;;;1.88;0.93;;;;;;;13.98;98.49;96549.91;5046250;28;20205;-69
2022/12/31 09:16:18;;;;;;;2.60;1.30;;;;;;;14.05;98.43;96550.78;5047207;28;20205;-70
2022/12/31 09:18:45;;;;;;;3.03;1.45;;;;;;;14.02;97.36;96549.31;5046355;28;20205;-70
2022/12/31 09:21:15;;;;;;;3.78;1.25;;;;;;;14.16;98.21;96560.91;5043540;28;20225;-70
2022/12/31 09:23:42;;;;;;;3.92;1.40;;;;;;;14.15;97.18;96564.56;5048547;28;20213;-70
2022/12/31 09:26:21;;;;;;;10.55;1.70;;;;;;;14.24;97.55;96558.94;5043326;28;20208;-70
2022/12/31 09:28:57;;;;;;;3.95;1.70;;;;;;;14.29;97.05;96556.53;5037666;28;20196;-70
2022/12/31 09:31:31;;;;;;;2.83;1.40;;;;;;;14.25;98.06;96554.47;5045820;28;20212;-70
2022/12/31 09:34:05;;;;;;;2.90;1.85;;;;;;;14.15;99.02;96559.25;5043462;28;20202;-70
2022/12/31 09:36:39;;;;;;;11.23;3.58;;;;;;;14.25;97.25;96557.09;5046139;28;20216;-70
2022/12/31 09:39:14;;;;;;;5.28;2.17;;;;;;;14.33;96.44;96563.09;5048783;28;20224;-70
2022/12/31 09:42:18;;;;;;;6.65;2.28;;;;;;;14.31;96.51;96570.41;5040501;28;20193;-70
2022/12/31 09:45:24;;;;;;;4.85;1.73;;;;;;;14.32;95.47;96576.53;5038279;28;20205;-70
2022/12/31 09:48:33;;;;;;;6.43;1.70;;;;;;;14.35;95.23;96590.22;5036770;28;20197;-70
2022/12/31 09:51:12;;;;;;;3.28;1.35;;;;;;;14.41;94.74;96578.03;5033072;28;20614;-70
2022/12/31 09:53:59;;;;;;;1.70;0.95;;;;;;;14.47;94.40;96585.22;5040372;28;20200;-70
2022/12/31 09:56:31;;;;;;;2.15;1.35;;;;;;;14.44;94.88;96580.31;5043752;28;20217;-70
2022/12/31 09:59:05;;;;;;;3.08;1.70;;;;;;;14.64;95.22;96587.41;5041705;28;20748;-70
2022/12/31 10:01:42;;;;;;;4.72;2.00;;;;;;;14.55;94.63;96585.91;5045298;28;20559;-70
2022/12/31 10:04:46;;;;;;;8.35;4.25;;;;;;;14.67;94.32;96579.84;5047247;28;20205;-70
2022/12/31 10:07:36;;;;;;;5.75;3.10;;;;;;;14.77;94.09;96576.88;5032013;28;20201;-70
2022/12/31 10:10:16;;;;;;;2.53;1.48;;;;;;;14.67;94.30;96571.91;5035819;28;20221;-72
2022/12/31 10:13:16;;;;;;;4.38;2.28;;;;;;;14.56;95.88;96570.81;5035643;28;20205;-71
2022/12/31 10:16:03;;;;;;;27.77;14.50;;;;;;;14.80;95.02;96565.88;5036211;28;20208;-70
2022/12/31 10:18:42;;;;;;;8.45;2.90;;;;;;;14.48;96.11;96576.25;5048017;28;20225;-71
2022/12/31 10:21:32;;;;;;;7.97;3.65;;;;;;;14.70;94.72;96576.84;5046374;28;20590;-70
2022/12/31 10:24:23;;;;;;;6.40;2.65;;;;;;;14.72;94.53;96574.78;5046333;28;20209;-70
2022/12/31 10:27:01;;;;;;;3.80;2.30;;;;;;;14.68;95.16;96578.03;5042330;28;20209;-70
2022/12/31 10:29:42;;;;;;;6.10;3.03;;;;;;;14.80;94.83;96571.19;5048781;28;20221;-70
2022/12/31 10:32:17;;;;;;;1.33;0.85;;;;;;;14.87;93.59;96572.06;5045055;28;20228;-70
2022/12/31 10:34:53;;;;;;;1.88;1.50;;;;;;;14.78;94.53;96566.06;5043943;28;20215;-70
2022/12/31 10:37:24;;;;;;;1.98;1.23;;;;;;;14.84;94.96;96564.47;5048341;28;20594;-70
2022/12/31 10:40:03;;;;;;;4.30;1.70;;;;;;;14.95;93.20;96562.09;5051610;28;21184;-69
2022/12/31 10:43:06;;;;;;;2.22;1.30;;;;;;;15.03;92.59;96561.94;5038643;28;20217;-69
2022/12/31 10:46:18;;;;;;;14.70;6.57;;;;;;;15.20;91.56;96560.59;5039453;28;20216;-69
2022/12/31 10:49:19;;;;;;;5.07;2.45;;;;;;;15.26;90.90;96554.50;5040929;28;20220;-70
2022/12/31 10:52:23;;;;;;;3.35;1.48;;;;;;;15.31;89.84;96565.34;5040118;28;20200;-70
2022/12/31 10:55:32;;;;;;;2.20;1.27;;;;;;;15.36;90.02;96566.41;5039492;28;20211;-70
2022/12/31 10:58:32;;;;;;;4.43;2.15;;;;;;;15.39;90.89;96559.91;4978336;28;20214;-69
2022/12/31 11:01:07;;;;;;;3.33;1.90;;;;;;;15.45;91.66;96551.13;4977546;28;20222;-70
2022/12/31 11:03:59;;;;;;;5.13;2.58;;;;;;;15.58;91.27;96552.00;5028193;28;20684;-69
2022/12/31 11:06:49;;;;;;;1.58;1.35;;;;;;;15.61;90.56;96545.47;5039983;28;20864;-70
2022/12/31 11:09:57;;;;;;;3.60;1.40;;;;;;;15.67;91.30;96539.31;5039042;28;20240;-70
2022/12/31 11:12:47;;;;;;;1.95;1.23;;;;;;;15.69;90.47;96547.91;5040370;28;20236;-70
2022/12/31 11:15:32;;;;;;;2.42;1.10;;;;;;;15.73;90.87;96544.66;5038528;28;20386;-70
2022/12/31 11:18:06;;;;;;;3.30;1.10;;;;;;;15.77;91.00;96545.06;5038921;28;20201;-71
2022/12/31 11:20:51;;;;;;;2.95;0.90;;;;;;;15.79;89.44;96541.19;5039200;28;20343;-70
2022/12/31 11:23:31;;;;;;;3.75;1.10;;;;;;;15.79;89.14;96535.06;5039791;28;20223;-70
2022/12/31 11:26:10;;;;;;;1.52;1.02;;;;;;;15.83;88.68;96531.00;5039545;28;20205;-70
2022/12/31 11:28:53;;;;;;;2.22;1.33;;;;;;;16.05;88.19;96538.56;5039334;28;20219;-70
2022/12/31 11:31:37;;;;;;;2.25;1.38;;;;;;;16.07;87.02;96531.22;5039364;28;20977;-70
2022/12/31 11:34:24;;;;;;;1.25;1.13;;;;;;;16.04;87.47;96523.66;5041256;28;20205;-70
2022/12/31 11:37:04;;;;;;;2.58;1.20;;;;;;;16.11;87.01;96508.53;5039859;28;20205;-70
2022/12/31 11:39:44;;;;;;;1.38;0.90;;;;;;;16.20;87.04;96501.97;5039698;28;20232;-70
2022/12/31 11:42:21;;;;;;;2.08;1.30;;;;;;;16.23;87.13;96505.06;5039108;28;20583;-70
2022/12/31 11:44:55;;;;;;;2.65;2.10;;;;;;;16.08;87.55;96501.78;5038376;28;20217;-70
2022/12/31 11:47:43;;;;;;;4.18;2.30;;;;;;;16.26;87.06;96503.84;5037463;28;20222;-70
2022/12/31 11:50:36;;;;;;;8.35;4.38;;;;;;;16.41;86.73;96507.94;5038082;28;20229;-70
2022/12/31 11:53:23;;;;;;;5.70;3.08;;;;;;;16.34;87.06;96507.09;5034650;28;20201;-70
2022/12/31 11:56:00;;;;;;;4.95;2.35;;;;;;;16.45;86.18;96506.50;5037826;28;20201;-70
2022/12/31 11:58:27;;;;;;;3.38;1.70;;;;;;;16.19;88.37;96508.31;5048065;28;20256;-71
2022/12/31 12:00:56;;;;;;;3.00;1.70;;;;;;;16.32;86.78;96509.19;5047715;28;20597;-71
2022/12/31 12:03:24;;;;;;;5.65;2.28;;;;;;;16.45;87.02;96508.34;5048486;28;20209;-71